createdAt,value
2018-12-04T00:00:27.761Z,90.17
2018-12-04T00:02:56.593Z,90.69
2018-12-04T00:05:25.421Z,90.42
2018-12-04T00:07:54.297Z,90.83
2018-12-04T00:10:23.130Z,90.84
2018-12-04T00:12:52.029Z,90.62
2018-12-04T00:15:20.928Z,90.34
2018-12-04T00:17:50.556Z,90.04
2018-12-04T00:20:19.400Z,90.03
2018-12-04T00:22:48.271Z,90.41
2018-12-04T00:25:21.237Z,90.48
2018-12-04T00:27:52.000Z,90.86
2018-12-04T00:30:32.720Z,91.06
2018-12-04T00:33:02.733Z,91.02
2018-12-04T00:35:32.970Z,90.80
2018-12-04T00:38:03.578Z,90.80
2018-12-04T00:40:37.630Z,90.50
2018-12-04T00:43:07.458Z,90.11
2018-12-04T00:45:36.288Z,89.49
2018-12-04T00:48:05.761Z,89.08
2018-12-04T00:50:34.658Z,88.58
2018-12-04T00:53:05.160Z,88.27
2018-12-04T00:55:42.162Z,88.36
2018-12-04T00:58:11.045Z,87.46
2018-12-04T01:00:40.601Z,87.65
2018-12-04T01:03:09.438Z,87.80
2018-12-04T01:05:38.820Z,88.07
2018-12-04T01:08:07.653Z,88.12
2018-12-04T01:10:36.589Z,88.64
2018-12-04T01:13:05.409Z,89.24
2018-12-04T01:15:35.241Z,89.26
2018-12-04T01:18:04.094Z,89.75
2018-12-04T01:20:33.874Z,90.43
2018-12-04T01:23:02.705Z,89.66
2018-12-04T01:25:31.569Z,89.36
2018-12-04T01:28:00.409Z,89.17
2018-12-04T01:30:29.214Z,89.31
2018-12-04T01:32:58.322Z,89.13
2018-12-04T01:35:27.102Z,89.04
2018-12-04T01:37:55.925Z,88.95
2018-12-04T01:40:24.770Z,88.72
2018-12-04T01:42:53.574Z,88.74
2018-12-04T01:45:22.369Z,88.13
2018-12-04T01:47:51.211Z,88.09
2018-12-04T01:50:20.050Z,88.35
2018-12-04T01:52:50.353Z,88.15
2018-12-04T01:55:19.144Z,88.32
2018-12-04T01:57:47.932Z,88.80
2018-12-04T02:00:16.782Z,88.61
2018-12-04T02:02:45.579Z,88.64
2018-12-04T02:05:14.511Z,88.71
2018-12-04T02:07:43.368Z,88.63
2018-12-04T02:10:12.161Z,87.97
2018-12-04T02:12:41.037Z,88.42
2018-12-04T02:15:10.239Z,88.59
2018-12-04T02:17:39.019Z,88.46
2018-12-04T02:20:07.869Z,89.02
2018-12-04T02:22:36.713Z,89.08
2018-12-04T02:25:05.918Z,88.85
2018-12-04T02:27:34.739Z,88.16
2018-12-04T02:30:04.197Z,87.85
2018-12-04T02:32:33.026Z,87.95
2018-12-04T02:35:01.809Z,87.81
2018-12-04T02:37:30.635Z,87.90
2018-12-04T02:39:59.444Z,88.76
2018-12-04T02:42:28.995Z,88.79
2018-12-04T02:44:59.189Z,88.41
2018-12-04T02:47:33.209Z,87.70
2018-12-04T02:50:07.374Z,88.26
2018-12-04T02:52:38.673Z,87.79
2018-12-04T02:55:07.805Z,88.48
2018-12-04T02:57:43.093Z,88.85
2018-12-04T03:00:13.110Z,88.75
2018-12-04T03:02:41.902Z,88.65
2018-12-04T03:05:10.811Z,87.84
2018-12-04T03:07:42.214Z,87.58
2018-12-04T03:10:13.518Z,88.34
2018-12-04T03:12:44.034Z,88.43
2018-12-04T03:15:12.924Z,88.15
2018-12-04T03:17:41.729Z,87.62
2018-12-04T03:20:12.757Z,86.93
2018-12-04T03:22:41.549Z,87.91
2018-12-04T03:25:14.384Z,88.22
2018-12-04T03:27:46.112Z,88.03
2018-12-04T03:30:14.991Z,87.44
2018-12-04T03:32:43.806Z,87.04
2018-12-04T03:35:14.538Z,86.90
2018-12-04T03:37:44.401Z,86.89
2018-12-04T03:40:14.117Z,87.44
2018-12-04T03:42:44.683Z,87.53
2018-12-04T03:45:13.650Z,88.21
2018-12-04T03:47:42.970Z,88.06
2018-12-04T03:50:14.091Z,87.91
2018-12-04T03:52:46.485Z,87.96
2018-12-04T03:55:15.349Z,86.95
2018-12-04T03:57:44.189Z,86.55
2018-12-04T04:00:24.190Z,86.52
2018-12-04T04:02:56.471Z,86.14
2018-12-04T04:05:25.365Z,86.64
2018-12-04T04:07:54.153Z,86.83
2018-12-04T04:10:23.017Z,86.91
2018-12-04T04:12:55.542Z,87.11
2018-12-04T04:15:28.013Z,87.14
2018-12-04T04:17:58.849Z,86.99
2018-12-04T04:20:27.654Z,86.69
2018-12-04T04:22:56.456Z,87.14
2018-12-04T04:25:26.478Z,87.23
2018-12-04T04:27:56.175Z,86.67
2018-12-04T04:30:26.361Z,86.31
2018-12-04T04:32:55.825Z,86.86
2018-12-04T04:35:24.634Z,88.11
2018-12-04T04:37:53.473Z,88.86
2018-12-04T04:40:22.854Z,89.49
2018-12-04T04:42:57.794Z,89.73
2018-12-04T04:45:27.275Z,90.59
2018-12-04T04:47:56.998Z,90.89
2018-12-04T04:50:25.947Z,91.13
2018-12-04T04:52:57.232Z,90.28
2018-12-04T04:55:27.109Z,89.97
2018-12-04T04:57:58.312Z,89.80
2018-12-04T05:00:28.861Z,89.58
2018-12-04T05:03:01.254Z,89.55
2018-12-04T05:05:37.689Z,89.20
2018-12-04T05:08:07.112Z,89.18
2018-12-04T05:15:33.500Z,89.69
2018-12-04T05:18:03.663Z,89.40
2018-12-04T05:20:32.505Z,89.20
2018-12-04T05:23:02.660Z,89.10
2018-12-04T05:25:31.533Z,89.19
2018-12-04T05:28:00.341Z,89.08
2018-12-04T05:30:29.158Z,90.26
2018-12-04T05:32:59.251Z,90.28
2018-12-04T05:35:28.107Z,90.78
2018-12-04T05:37:58.261Z,90.67
2018-12-04T05:40:27.043Z,91.40
2018-12-04T05:42:55.970Z,91.42
2018-12-04T05:45:25.973Z,91.80
2018-12-04T05:47:54.800Z,91.96
2018-12-04T05:50:23.583Z,92.27
2018-12-04T05:53:03.404Z,91.77
2018-12-04T05:55:33.477Z,92.21
2018-12-04T05:58:02.933Z,92.38
2018-12-04T06:00:33.138Z,92.39
2018-12-04T06:03:02.025Z,91.91
2018-12-04T06:05:31.517Z,92.14
2018-12-04T06:08:03.248Z,92.25
2018-12-04T06:10:32.704Z,92.09
2018-12-04T06:13:03.102Z,91.99
2018-12-04T06:15:31.974Z,92.00
2018-12-04T06:18:00.993Z,91.97
2018-12-04T06:20:29.962Z,91.22
2018-12-04T06:23:02.134Z,91.24
2018-12-04T06:25:31.885Z,91.99
2018-12-04T06:28:00.838Z,91.58
2018-12-04T06:30:29.715Z,91.57
2018-12-04T06:32:58.518Z,91.35
2018-12-04T06:35:29.682Z,91.64
2018-12-04T06:37:58.509Z,91.35
2018-12-04T06:40:27.318Z,90.70
2018-12-04T06:42:56.121Z,90.72
2018-12-04T06:45:24.954Z,90.26
2018-12-04T06:47:53.753Z,90.56
2018-12-04T06:50:22.612Z,90.20
2018-12-04T06:52:52.677Z,90.47
2018-12-04T06:55:21.476Z,91.42
2018-12-04T06:57:58.690Z,91.09
2018-12-04T07:00:27.524Z,90.88
2018-12-04T07:02:56.334Z,91.37
2018-12-04T07:05:25.211Z,90.51
2018-12-04T07:07:54.010Z,90.80
2018-12-04T07:10:22.857Z,90.59
2018-12-04T07:12:53.220Z,89.88
2018-12-04T07:15:28.314Z,89.71
2018-12-04T07:18:01.482Z,89.41
2018-12-04T07:20:31.343Z,89.64
2018-12-04T07:23:00.169Z,90.62
2018-12-04T07:25:28.993Z,88.96
2018-12-04T07:27:58.333Z,89.13
2018-12-04T07:30:28.388Z,88.00
2018-12-04T07:32:57.209Z,85.99
2018-12-04T07:35:26.051Z,85.83
2018-12-04T07:37:54.849Z,84.86
2018-12-04T07:40:23.654Z,84.44
2018-12-04T07:42:52.516Z,83.66
2018-12-04T07:45:21.309Z,84.24
2018-12-04T07:47:50.157Z,84.62
2018-12-04T07:50:18.971Z,83.83
2018-12-04T07:52:47.813Z,84.68
2018-12-04T07:55:16.601Z,85.01
2018-12-04T07:57:45.406Z,85.20
2018-12-04T08:00:16.465Z,84.89
2018-12-04T08:02:45.279Z,84.72
2018-12-04T08:05:14.090Z,86.61
2018-12-04T08:07:42.966Z,85.41
2018-12-04T08:10:11.769Z,85.14
2018-12-04T08:12:40.565Z,84.80
2018-12-04T08:15:09.441Z,84.45
2018-12-04T08:17:38.254Z,84.94
2018-12-04T08:20:09.706Z,84.72
2018-12-04T08:22:38.639Z,84.75
2018-12-04T08:25:07.790Z,85.40
2018-12-04T08:27:40.309Z,86.34
2018-12-04T08:30:09.579Z,85.42
2018-12-04T08:32:39.583Z,84.73
2018-12-04T08:35:10.173Z,84.95
2018-12-04T08:37:39.593Z,85.12
2018-12-04T08:40:11.229Z,85.02
2018-12-04T08:42:40.066Z,84.80
2018-12-04T08:45:10.385Z,85.49
2018-12-04T08:47:40.840Z,85.01
2018-12-04T08:50:09.671Z,85.00
2018-12-04T08:52:38.625Z,83.70
2018-12-04T08:55:07.630Z,84.07
2018-12-04T08:57:36.435Z,83.51
2018-12-04T09:00:06.326Z,83.77
2018-12-04T09:02:36.678Z,83.08
2018-12-04T09:05:06.116Z,81.97
2018-12-04T09:07:35.929Z,80.71
2018-12-04T09:10:05.681Z,79.53
2018-12-04T09:12:34.511Z,78.62
2018-12-04T09:15:03.470Z,78.63
2018-12-04T09:17:32.330Z,77.82
2018-12-04T09:20:01.163Z,78.27
2018-12-04T09:22:30.696Z,78.17
2018-12-04T09:25:00.237Z,77.32
2018-12-04T09:27:29.566Z,76.76
2018-12-04T09:29:58.477Z,78.12
2018-12-04T09:32:28.706Z,78.51
2018-12-04T09:34:57.665Z,78.81
2018-12-04T09:37:26.453Z,79.26
2018-12-04T09:39:55.327Z,78.10
2018-12-04T09:42:24.249Z,78.88
2018-12-04T09:44:53.090Z,81.71
2018-12-04T09:47:21.918Z,81.88
2018-12-04T09:49:54.405Z,80.25
2018-12-04T09:52:24.698Z,80.72
2018-12-04T09:54:53.509Z,80.28
2018-12-04T09:57:22.425Z,80.13
2018-12-04T09:59:51.239Z,79.42
2018-12-04T10:02:20.078Z,78.96
2018-12-04T10:04:48.937Z,78.51
2018-12-04T10:07:17.769Z,77.87
2018-12-04T10:09:46.586Z,76.94
2018-12-04T10:12:16.702Z,75.81
2018-12-04T10:19:04.869Z,75.45
2018-12-04T10:21:33.670Z,74.93
2018-12-04T10:24:02.493Z,75.23
2018-12-04T10:26:32.573Z,74.66
2018-12-04T10:29:01.418Z,75.43
2018-12-04T10:31:31.462Z,76.93
2018-12-04T10:34:00.321Z,77.47
2018-12-04T10:36:29.126Z,77.74
2018-12-04T10:38:58.751Z,78.41
2018-12-04T10:41:27.695Z,79.14
2018-12-04T10:43:56.650Z,79.01
2018-12-04T10:46:25.505Z,79.13
2018-12-04T10:48:54.333Z,78.83
2018-12-04T10:51:23.153Z,79.16
2018-12-04T10:53:51.999Z,78.54
2018-12-04T10:56:20.803Z,78.68
2018-12-04T10:58:49.923Z,77.84
2018-12-04T11:01:27.641Z,78.05
2018-12-04T11:03:56.440Z,78.35
2018-12-04T11:06:25.370Z,78.41
2018-12-04T11:08:54.252Z,78.48
2018-12-04T11:11:23.037Z,78.64
2018-12-04T11:13:51.818Z,79.24
2018-12-04T11:16:20.650Z,80.46
2018-12-04T11:18:49.430Z,80.61
2018-12-04T11:21:18.221Z,81.82
2018-12-04T11:23:48.245Z,81.41
2018-12-04T11:26:17.049Z,81.97
2018-12-04T11:28:45.829Z,82.18
2018-12-04T11:31:14.731Z,81.59
2018-12-04T11:33:44.011Z,82.23
2018-12-04T11:36:12.822Z,82.23
2018-12-04T11:38:43.037Z,81.61
2018-12-04T11:41:11.862Z,81.89
2018-12-04T11:43:40.714Z,82.23
2018-12-04T11:46:09.515Z,81.82
2018-12-04T11:48:38.301Z,81.57
2018-12-04T11:51:07.158Z,81.08
2018-12-04T11:53:35.972Z,81.64
2018-12-04T11:56:04.772Z,81.20
2018-12-04T11:58:33.758Z,81.25
2018-12-04T12:21:18.375Z,77.91
2018-12-04T12:23:47.219Z,79.55
2018-12-04T12:26:16.579Z,80.28
2018-12-04T12:28:45.469Z,81.32
2018-12-04T12:31:14.289Z,80.97
2018-12-04T12:33:43.145Z,81.58
2018-12-04T12:36:12.030Z,81.15
2018-12-04T12:41:23.946Z,81.57
2018-12-04T12:43:52.916Z,81.89
2018-12-04T12:46:22.616Z,82.18
2018-12-04T12:48:51.518Z,81.89
2018-12-04T12:51:20.360Z,83.16
2018-12-04T12:53:49.241Z,83.24
2018-12-04T12:56:18.140Z,84.81
2018-12-04T12:58:46.998Z,85.84
2018-12-04T13:01:15.856Z,86.17
2018-12-04T13:03:44.694Z,86.12
2018-12-04T13:06:13.665Z,86.38
2018-12-04T13:08:42.516Z,86.04
2018-12-04T13:11:12.683Z,85.99
2018-12-04T13:13:41.571Z,84.77
2018-12-04T13:16:10.466Z,85.34
2018-12-04T13:18:39.297Z,85.68
2018-12-04T13:21:08.114Z,85.33
2018-12-04T13:23:36.984Z,85.37
2018-12-04T13:26:05.870Z,85.19
2018-12-04T13:28:34.723Z,85.07
2018-12-04T13:31:03.624Z,85.35
2018-12-04T13:33:32.593Z,85.48
2018-12-04T13:36:02.434Z,85.46
2018-12-04T13:38:31.272Z,85.51
2018-12-04T13:41:00.076Z,85.44
2018-12-04T13:43:29.413Z,85.20
2018-12-04T13:45:58.228Z,85.42
2018-12-04T13:48:27.030Z,84.52
2018-12-04T13:50:55.914Z,84.70
2018-12-04T13:53:24.745Z,84.49
2018-12-04T13:55:54.917Z,84.11
2018-12-04T13:58:23.768Z,84.10
2018-12-04T14:00:52.637Z,83.61
2018-12-04T14:03:21.509Z,83.59
2018-12-04T14:05:50.329Z,83.46
2018-12-04T14:08:19.217Z,82.99
2018-12-04T14:10:48.128Z,82.68
2018-12-04T14:13:16.977Z,82.77
2018-12-04T14:15:45.780Z,83.84
2018-12-04T14:18:15.198Z,83.47
2018-12-04T14:20:44.051Z,84.13
2018-12-04T14:23:12.901Z,84.52
2018-12-04T14:25:41.941Z,84.70
2018-12-04T14:28:10.772Z,85.12
2018-12-04T14:30:40.646Z,85.34
2018-12-04T14:33:09.467Z,86.04
2018-12-04T14:35:38.321Z,85.80
2018-12-04T14:38:07.252Z,86.41
2018-12-04T14:40:36.206Z,85.96
2018-12-04T14:43:05.178Z,85.42
2018-12-04T14:45:35.320Z,85.54
2018-12-04T14:48:04.209Z,85.87
2018-12-04T14:50:33.229Z,85.70
2018-12-04T14:53:02.265Z,86.50
2018-12-04T14:55:31.209Z,87.29
2018-12-04T14:58:01.469Z,86.57
2018-12-04T15:00:30.360Z,85.95
2018-12-04T15:02:59.170Z,85.96
2018-12-04T15:05:28.130Z,85.69
2018-12-04T15:07:57.018Z,85.58
2018-12-04T15:10:25.911Z,85.18
2018-12-04T15:12:54.882Z,85.00
2018-12-04T15:15:24.795Z,84.97
2018-12-04T15:17:53.855Z,84.93
2018-12-04T15:20:22.824Z,85.01
2018-12-04T15:22:51.673Z,84.73
2018-12-04T15:25:20.538Z,84.72
2018-12-04T15:27:50.892Z,84.51
2018-12-04T15:30:19.766Z,84.12
2018-12-04T15:32:48.701Z,84.46
2018-12-04T15:35:17.571Z,83.99
2018-12-04T15:37:46.455Z,83.82
2018-12-04T15:40:15.407Z,84.00
2018-12-04T15:42:45.546Z,84.03
2018-12-04T15:45:14.512Z,84.22
2018-12-04T15:47:43.371Z,83.90
2018-12-04T15:50:12.263Z,84.08
2018-12-04T15:52:41.136Z,85.18
2018-12-04T15:55:10.076Z,85.32
2018-12-04T15:57:40.265Z,85.14
2018-12-04T16:00:10.977Z,84.68
2018-12-04T16:02:39.870Z,84.62
2018-12-04T16:05:10.108Z,84.16
2018-12-04T16:07:39.292Z,84.13
2018-12-04T16:10:11.259Z,84.25
2018-12-04T16:12:40.115Z,84.26
2018-12-04T16:15:09.421Z,85.69
2018-12-04T16:17:38.234Z,86.01
2018-12-04T16:20:08.383Z,85.73
2018-12-04T16:22:37.284Z,85.62
2018-12-04T16:25:07.833Z,85.45
2018-12-04T16:27:36.769Z,85.47
2018-12-04T16:30:09.789Z,86.37
2018-12-04T16:32:38.671Z,87.34
2018-12-04T16:37:48.826Z,87.54
2018-12-04T16:40:17.680Z,88.56
2018-12-04T16:42:46.533Z,89.18
2018-12-04T16:45:16.608Z,88.98
2018-12-04T16:47:45.449Z,88.97
2018-12-04T16:50:14.293Z,89.14
2018-12-04T16:52:44.460Z,89.03
2018-12-04T16:55:13.357Z,88.84
2018-12-04T16:57:42.198Z,88.36
2018-12-04T17:00:13.308Z,88.66
2018-12-04T17:02:42.152Z,88.65
2018-12-04T17:05:14.048Z,88.37
2018-12-04T17:07:42.904Z,88.90
2018-12-04T17:10:12.033Z,88.76
2018-12-04T17:12:40.969Z,88.97
2018-12-04T17:15:09.979Z,88.84
2018-12-04T17:17:40.060Z,89.03
2018-12-04T17:20:10.386Z,87.91
2018-12-04T17:22:39.225Z,87.49
2018-12-04T17:25:08.108Z,87.57
2018-12-04T17:27:38.298Z,87.66
2018-12-04T17:30:09.630Z,87.39
2018-12-04T17:32:39.975Z,87.19
2018-12-04T17:35:08.829Z,87.22
2018-12-04T17:37:37.667Z,87.07
2018-12-04T17:40:07.461Z,87.35
2018-12-04T17:42:36.286Z,87.11
2018-12-04T17:45:07.349Z,87.33
2018-12-04T17:47:37.575Z,87.11
2018-12-04T17:50:08.121Z,87.02
2018-12-04T17:52:37.011Z,87.36
2018-12-04T17:55:06.370Z,87.41
2018-12-04T17:57:36.677Z,88.65
2018-12-04T18:00:06.302Z,88.40
2018-12-04T18:02:35.101Z,88.26
2018-12-04T18:05:04.138Z,87.69
2018-12-04T18:07:32.978Z,88.42
2018-12-04T18:10:01.851Z,88.82
2018-12-04T18:12:30.728Z,88.70
2018-12-04T18:14:59.616Z,89.35
2018-12-04T18:17:30.070Z,89.43
2018-12-04T18:19:58.914Z,89.83
2018-12-04T18:22:27.789Z,90.17
2018-12-04T18:24:57.914Z,89.62
2018-12-04T18:27:26.738Z,89.20
2018-12-04T18:29:55.939Z,89.17
2018-12-04T18:32:25.318Z,89.19
2018-12-04T18:34:54.145Z,89.07
2018-12-04T18:37:25.294Z,89.31
2018-12-04T18:39:54.286Z,89.09
2018-12-04T18:42:23.152Z,89.01
2018-12-04T18:44:53.621Z,89.29
2018-12-04T18:47:22.515Z,89.50
2018-12-04T18:49:51.430Z,89.47
2018-12-04T18:52:20.359Z,89.47
2018-12-04T18:54:49.217Z,90.24
2018-12-04T18:57:19.537Z,91.16
2018-12-04T18:59:48.444Z,91.78
2018-12-04T19:02:17.351Z,91.80
2018-12-04T19:04:46.375Z,92.22
2018-12-04T19:07:15.274Z,92.02
2018-12-04T19:09:44.127Z,92.18
2018-12-04T19:12:13.101Z,92.03
2018-12-04T19:14:42.009Z,91.49
2018-12-04T19:17:10.849Z,91.83
2018-12-04T19:19:39.692Z,92.34
2018-12-04T19:22:10.179Z,92.26
2018-12-04T19:24:39.013Z,92.05
2018-12-04T19:27:08.778Z,91.30
2018-12-04T19:29:37.853Z,92.05
2018-12-04T19:32:06.711Z,92.41
2018-12-04T19:34:35.694Z,92.21
2018-12-04T19:37:04.568Z,92.32
2018-12-04T19:39:34.902Z,92.99
2018-12-04T19:42:03.953Z,93.34
2018-12-04T19:44:32.827Z,93.84
2018-12-04T19:47:01.697Z,93.77
2018-12-04T19:49:30.497Z,92.85
2018-12-04T19:51:59.410Z,91.74
2018-12-04T19:54:28.223Z,90.88
2018-12-04T19:56:57.055Z,89.95
2018-12-04T19:59:25.950Z,90.03
2018-12-04T20:01:54.761Z,89.55
2018-12-04T20:04:23.575Z,89.05
2018-12-04T20:06:54.049Z,89.87
2018-12-04T20:09:22.882Z,90.69
2018-12-04T20:11:52.209Z,91.14
2018-12-04T20:14:22.562Z,90.77
2018-12-04T20:16:51.390Z,90.94
2018-12-04T20:19:20.483Z,90.69
2018-12-04T20:21:49.343Z,90.63
2018-12-04T20:24:18.221Z,90.75
2018-12-04T20:26:47.021Z,90.89
2018-12-04T20:29:15.864Z,91.01
2018-12-04T20:31:44.733Z,91.39
2018-12-04T20:34:13.562Z,91.56
2018-12-04T20:36:42.397Z,91.30
2018-12-04T20:39:11.283Z,92.00
2018-12-04T20:41:40.131Z,91.76
2018-12-04T20:44:08.934Z,91.66
2018-12-04T20:46:37.815Z,91.94
2018-12-04T20:49:06.666Z,91.83
2018-12-04T20:51:35.494Z,92.12
2018-12-04T20:54:04.597Z,92.40
2018-12-04T20:56:33.415Z,92.22
2018-12-04T20:59:02.506Z,92.77
2018-12-04T21:01:31.542Z,93.86
2018-12-04T21:04:00.370Z,94.29
2018-12-04T21:06:29.230Z,95.07
2018-12-04T21:08:58.178Z,96.24
2018-12-04T21:11:27.024Z,96.71
2018-12-04T21:13:55.951Z,98.09
2018-12-04T21:16:24.831Z,99.07
2018-12-04T21:18:53.686Z,99.57
2018-12-04T21:21:22.523Z,99.41
2018-12-04T21:23:51.381Z,99.45
2018-12-04T21:26:20.324Z,99.62
2018-12-04T21:28:54.243Z,99.63
2018-12-04T21:31:28.101Z,99.35
2018-12-04T21:34:03.301Z,99.30
2018-12-04T21:36:37.331Z,99.30
2018-12-04T21:39:13.905Z,99.56
2018-12-04T21:41:47.825Z,99.84
2018-12-04T21:44:21.773Z,100.00
2018-12-04T21:46:55.633Z,100.00
2018-12-04T21:49:29.857Z,100.00
2018-12-04T21:51:59.977Z,100.00
2018-12-04T21:54:28.817Z,100.00
2018-12-04T21:56:57.613Z,100.00
2018-12-04T21:59:26.558Z,100.00
2018-12-04T22:01:55.388Z,100.00
2018-12-04T22:04:24.229Z,100.00
2018-12-04T22:06:53.089Z,100.00
2018-12-04T22:09:21.912Z,100.00
2018-12-04T22:11:50.770Z,100.00
2018-12-04T22:14:19.654Z,100.00
2018-12-04T22:16:48.483Z,100.00
2018-12-04T22:19:17.346Z,100.00
2018-12-04T22:21:46.677Z,100.00
2018-12-04T22:24:15.509Z,100.00
2018-12-04T22:26:44.321Z,100.00
2018-12-04T22:29:13.195Z,99.44
2018-12-04T22:31:42.015Z,98.85
2018-12-04T22:34:10.851Z,97.77
2018-12-04T22:36:40.307Z,96.97
2018-12-04T22:39:10.358Z,96.63
2018-12-04T22:41:39.215Z,96.87
2018-12-04T22:44:08.097Z,96.69
2018-12-04T22:46:37.167Z,96.39
2018-12-04T22:49:06.394Z,96.47
2018-12-04T22:51:36.703Z,96.26
2018-12-04T22:54:05.717Z,95.75
2018-12-04T22:56:34.565Z,96.01
2018-12-04T22:59:03.408Z,96.04
2018-12-04T23:01:41.382Z,95.87
2018-12-04T23:04:10.392Z,95.95
2018-12-04T23:06:39.239Z,95.52
2018-12-04T23:09:10.969Z,94.73
2018-12-04T23:11:40.541Z,94.75
2018-12-04T23:14:09.368Z,94.91
2018-12-04T23:16:38.350Z,94.76
2018-12-04T23:19:07.189Z,94.91
2018-12-04T23:21:36.033Z,94.18
2018-12-04T23:24:04.941Z,93.48
2018-12-04T23:26:33.773Z,93.97
2018-12-04T23:29:02.620Z,93.77
2018-12-04T23:31:31.936Z,93.29
2018-12-04T23:34:00.767Z,93.19
2018-12-04T23:36:29.584Z,93.26
2018-12-04T23:38:58.481Z,92.43
2018-12-04T23:41:27.304Z,92.32
2018-12-04T23:43:56.150Z,92.13
2018-12-04T23:46:25.033Z,91.94
2018-12-04T23:48:53.889Z,91.98
2018-12-04T23:51:22.752Z,91.67
2018-12-04T23:53:51.619Z,91.86
2018-12-04T23:56:20.477Z,91.63
2018-12-04T23:58:49.424Z,91.41
